Time;durP1;ratioP1;P1;durP2;ratioP2;P2;SDS_P1;SDS_P2;PMS_P1;PMS_P2;Temp;Humidity;BMP_temperature;BMP_pressure;BME280_temperature;BME280_humidity;BME280_pressure;Samples;Min_cycle;Max_cycle;Signal;HPM_P1;HPM_P2
2021/05/19 00:01:37;;;;;;;27.13;25.38;;;13.70;99.90;;;;;;5015150;28;20025;-53
2021/05/19 00:04:05;;;;;;;27.45;25.83;;;13.90;99.90;;;;;;5014957;28;20105;-51
2021/05/19 00:06:33;;;;;;;27.83;25.95;;;14.10;99.90;;;;;;5014886;28;20034;-53
2021/05/19 00:09:01;;;;;;;28.50;26.70;;;14.00;99.90;;;;;;5014770;28;20034;-48
2021/05/19 00:11:28;;;;;;;27.33;25.52;;;14.20;99.90;;;;;;5014692;28;20044;-49
2021/05/19 00:13:55;;;;;;;28.23;26.20;;;14.30;99.90;;;;;;5014750;28;20026;-48
2021/05/19 00:16:23;;;;;;;25.80;24.15;;;14.40;99.90;;;;;;5014579;28;20030;-50
2021/05/19 00:18:51;;;;;;;24.90;23.35;;;14.50;99.90;;;;;;5014677;28;20057;-50
2021/05/19 00:21:18;;;;;;;24.65;23.08;;;14.60;99.90;;;;;;5014604;28;20026;-51
2021/05/19 00:23:46;;;;;;;25.20;23.60;;;14.70;99.90;;;;;;5014463;28;20072;-49
2021/05/19 00:26:13;;;;;;;25.02;23.48;;;14.90;99.90;;;;;;4997371;28;20080;-51
2021/05/19 00:28:44;;;;;;;24.27;22.77;;;15.10;99.90;;;;;;5014430;28;20389;-49
2021/05/19 00:31:14;;;;;;;22.67;21.15;;;15.20;99.90;;;;;;5014258;28;20030;-48
2021/05/19 00:33:41;;;;;;;23.10;21.33;;;15.40;99.90;;;;;;5014467;28;20069;-48
2021/05/19 00:36:08;;;;;;;19.10;17.98;;;15.50;99.90;;;;;;5014196;28;20069;-49
2021/05/19 00:38:36;;;;;;;22.65;20.95;;;15.50;99.90;;;;;;5014164;28;20052;-54
2021/05/19 00:41:03;;;;;;;21.42;20.02;;;15.70;99.90;;;;;;5014326;28;20032;-48
2021/05/19 00:43:30;;;;;;;20.42;18.73;;;15.70;99.90;;;;;;5014104;28;20029;-53
2021/05/19 00:45:58;;;;;;;18.70;17.50;;;15.90;99.90;;;;;;5014118;28;20101;-52
2021/05/19 00:48:25;;;;;;;18.88;17.45;;;16.10;99.90;;;;;;5013396;28;20032;-54
2021/05/19 00:50:52;;;;;;;17.63;16.40;;;16.10;99.90;;;;;;5013990;28;20022;-53
2021/05/19 00:53:20;;;;;;;17.10;16.00;;;16.00;99.90;;;;;;5014109;28;20394;-52
2021/05/19 00:55:47;;;;;;;14.85;13.77;;;16.10;99.90;;;;;;5014065;28;20022;-51
2021/05/19 00:58:15;;;;;;;14.88;13.98;;;16.20;99.90;;;;;;5014028;28;20018;-53
2021/05/19 01:00:42;;;;;;;13.48;12.57;;;16.30;99.90;;;;;;5013620;28;20375;-53
2021/05/19 01:03:09;;;;;;;11.77;10.90;;;16.30;99.90;;;;;;4996108;28;20553;-51
2021/05/19 01:06:16;;;;;;;11.68;10.98;;;16.30;99.90;;;;;;5013891;28;20026;-51
2021/05/19 01:11:16;;;;;;;9.13;8.43;;;16.50;99.90;;;;;;5013761;28;20172;-55
2021/05/19 01:13:45;;;;;;;8.57;7.97;;;16.70;99.90;;;;;;5013754;28;20112;-51
2021/05/19 01:16:14;;;;;;;8.63;7.88;;;16.80;99.90;;;;;;5013649;28;20053;-49
2021/05/19 01:18:42;;;;;;;8.60;7.82;;;16.90;99.90;;;;;;5013556;28;20018;-50
2021/05/19 01:21:11;;;;;;;7.40;6.90;;;17.00;99.60;;;;;;5013619;28;20081;-52
2021/05/19 01:23:39;;;;;;;7.20;6.60;;;17.00;99.50;;;;;;5013661;28;20028;-50
2021/05/19 01:26:09;;;;;;;8.15;7.32;;;17.10;99.80;;;;;;5013556;28;20022;-54
2021/05/19 01:28:39;;;;;;;7.82;6.65;;;17.40;99.90;;;;;;5013567;28;20054;-53
2021/05/19 01:31:08;;;;;;;6.85;6.35;;;17.60;99.80;;;;;;5013284;28;20030;-52
2021/05/19 01:33:36;;;;;;;6.80;6.20;;;17.70;99.60;;;;;;5013331;28;20429;-54
2021/05/19 01:36:04;;;;;;;7.38;6.45;;;17.60;99.20;;;;;;5013355;28;20017;-52
2021/05/19 01:38:34;;;;;;;5.70;5.10;;;17.90;98.30;;;;;;4995676;28;20168;-54
2021/05/19 01:41:03;;;;;;;8.65;6.40;;;17.80;98.10;;;;;;5013266;28;20050;-50
2021/05/19 01:43:37;;;;;;;7.25;6.03;;;17.80;99.10;;;;;;5013283;28;20059;-51
2021/05/19 01:46:06;;;;;;;7.25;6.15;;;17.80;99.50;;;;;;5013163;28;20026;-53
2021/05/19 01:48:35;;;;;;;7.75;6.82;;;18.10;99.30;;;;;;5013011;28;20557;-49
2021/05/19 01:51:04;;;;;;;7.88;6.57;;;18.20;98.80;;;;;;5012941;28;20534;-53
2021/05/19 01:53:34;;;;;;;7.88;7.13;;;18.30;98.50;;;;;;5013123;28;20022;-51
2021/05/19 01:56:02;;;;;;;8.32;6.80;;;18.00;98.90;;;;;;5013108;28;20018;-50
2021/05/19 01:58:30;;;;;;;7.40;6.47;;;18.20;99.30;;;;;;5013104;28;20022;-50
2021/05/19 02:00:57;;;;;;;8.90;6.80;;;18.30;98.90;;;;;;5016144;28;20473;-52
2021/05/19 02:03:24;;;;;;;6.43;5.90;;;18.30;98.80;;;;;;5017140;28;20049;-52
2021/05/19 02:05:52;;;;;;;7.22;6.50;;;18.40;99.00;;;;;;5017311;28;20475;-49
2021/05/19 02:08:19;;;;;;;6.30;5.72;;;18.60;98.10;;;;;;5017175;28;20049;-48
2021/05/19 02:10:47;;;;;;;6.95;6.45;;;18.80;98.40;;;;;;5017045;28;20080;-51
2021/05/19 02:13:16;;;;;;;5.90;5.40;;;18.80;97.50;;;;;;5016931;28;20060;-49
2021/05/19 02:15:44;;;;;;;6.60;5.82;;;18.70;98.30;;;;;;5017023;28;20026;-52
2021/05/19 02:18:11;;;;;;;6.50;5.90;;;18.80;98.10;;;;;;5016919;28;20084;-49
2021/05/19 02:20:38;;;;;;;6.97;5.60;;;19.00;97.60;;;;;;5016796;28;20545;-50
2021/05/19 02:23:06;;;;;;;5.95;5.45;;;18.90;97.30;;;;;;5016731;28;20509;-51
2021/05/19 02:25:33;;;;;;;6.75;5.47;;;18.90;97.40;;;;;;5016813;28;20048;-52
2021/05/19 02:28:01;;;;;;;6.13;5.55;;;19.10;97.50;;;;;;5016746;28;20026;-53
2021/05/19 02:30:30;;;;;;;5.30;4.80;;;19.30;96.10;;;;;;5016539;28;20386;-53
2021/05/19 02:32:58;;;;;;;5.55;4.75;;;19.10;95.90;;;;;;5016422;28;20049;-47
2021/05/19 02:35:25;;;;;;;5.95;5.38;;;19.30;96.70;;;;;;5016588;28;20080;-51
2021/05/19 02:37:53;;;;;;;5.60;5.07;;;19.40;96.00;;;;;;5016482;28;20050;-54
2021/05/19 02:40:20;;;;;;;5.22;4.68;;;19.40;95.70;;;;;;5016492;28;20492;-52
2021/05/19 02:42:47;;;;;;;4.95;4.55;;;19.20;95.40;;;;;;5016495;28;20104;-52
2021/05/19 02:45:16;;;;;;;5.70;5.20;;;19.30;96.00;;;;;;5016253;28;20154;-53
2021/05/19 02:47:43;;;;;;;5.40;4.90;;;19.30;95.10;;;;;;5016117;28;20093;-53
2021/05/19 02:50:12;;;;;;;4.70;4.38;;;19.30;95.20;;;;;;5016289;28;20037;-51
2021/05/19 02:52:39;;;;;;;6.90;4.40;;;19.40;94.90;;;;;;5015948;28;20034;-47
2021/05/19 02:55:07;;;;;;;4.88;4.30;;;19.50;94.40;;;;;;5016426;28;20018;-50
2021/05/19 02:57:34;;;;;;;3.80;3.60;;;19.50;94.70;;;;;;5016236;28;20018;-49
2021/05/19 03:00:02;;;;;;;3.83;3.63;;;19.70;93.50;;;;;;5016072;28;20033;-52
2021/05/19 03:02:29;;;;;;;4.70;4.30;;;19.90;93.90;;;;;;5015973;28;20040;-49
2021/05/19 03:04:56;;;;;;;6.53;5.00;;;20.00;96.50;;;;;;5016009;28;20113;-51
2021/05/19 03:07:24;;;;;;;6.03;5.43;;;19.90;97.30;;;;;;5015947;28;20022;-53
2021/05/19 03:09:52;;;;;;;6.85;4.80;;;19.60;98.70;;;;;;5015813;28;20080;-50
2021/05/19 03:12:19;;;;;;;5.40;4.88;;;19.40;99.10;;;;;;5014904;28;20109;-50
2021/05/19 03:14:46;;;;;;;9.05;5.15;;;19.40;99.10;;;;;;5015670;28;20124;-52
2021/05/19 03:17:14;;;;;;;8.25;5.35;;;19.50;99.30;;;;;;5015731;28;20025;-57
2021/05/19 03:19:41;;;;;;;9.27;4.38;;;19.20;99.60;;;;;;5015600;28;20517;-48
2021/05/19 03:22:09;;;;;;;8.85;5.65;;;19.40;99.20;;;;;;5015657;28;20375;-50
2021/05/19 03:24:36;;;;;;;7.65;4.88;;;19.30;99.80;;;;;;4997995;28;20026;-50
2021/05/19 03:27:04;;;;;;;5.60;4.90;;;19.20;99.60;;;;;;4998483;28;20104;-52
2021/05/19 03:29:32;;;;;;;11.50;5.50;;;19.30;99.60;;;;;;5015633;28;20037;-52
2021/05/19 03:31:59;;;;;;;8.15;5.30;;;19.30;99.60;;;;;;5015464;28;20038;-54
2021/05/19 03:34:27;;;;;;;5.25;4.43;;;19.10;99.10;;;;;;5015555;28;20022;-49
2021/05/19 03:36:54;;;;;;;6.88;4.47;;;19.10;99.20;;;;;;5015487;28;20022;-51
2021/05/19 03:39:21;;;;;;;5.35;4.47;;;19.10;99.10;;;;;;5015487;28;20018;-47
2021/05/19 03:41:49;;;;;;;6.43;4.82;;;19.10;99.70;;;;;;5015413;28;20117;-50
2021/05/19 03:44:17;;;;;;;8.15;4.45;;;19.10;99.10;;;;;;5015275;28;20084;-51
2021/05/19 03:46:44;;;;;;;5.30;4.20;;;19.10;99.90;;;;;;5015227;28;20483;-51
2021/05/19 03:49:11;;;;;;;7.85;4.53;;;19.00;99.90;;;;;;5015347;28;20026;-52
2021/05/19 03:51:39;;;;;;;6.82;4.68;;;19.10;99.90;;;;;;5015330;28;20046;-50
2021/05/19 03:54:07;;;;;;;9.60;5.40;;;19.10;99.80;;;;;;5015166;28;20021;-50
2021/05/19 03:56:34;;;;;;;7.63;5.05;;;19.20;99.90;;;;;;5015091;28;20021;-53
2021/05/19 03:59:01;;;;;;;7.55;4.18;;;19.30;99.90;;;;;;5014992;28;20029;-55
2021/05/19 04:01:29;;;;;;;5.25;4.25;;;19.30;99.90;;;;;;5014936;28;20033;-50
2021/05/19 04:03:56;;;;;;;8.00;4.88;;;19.20;99.90;;;;;;5014905;28;20474;-54
2021/05/19 04:06:24;;;;;;;6.63;4.88;;;19.30;99.90;;;;;;5014958;28;20030;-51
2021/05/19 04:08:57;;;;;;;6.60;4.50;;;19.20;99.90;;;;;;5015046;28;20032;-56
2021/05/19 04:11:27;;;;;;;5.72;4.85;;;19.10;99.90;;;;;;4997367;28;20029;-56
2021/05/19 04:13:54;;;;;;;7.95;4.78;;;19.30;99.90;;;;;;5014926;28;20108;-55
2021/05/19 04:16:21;;;;;;;5.10;4.60;;;19.20;99.90;;;;;;5014711;28;20034;-54
2021/05/19 04:18:49;;;;;;;5.88;4.45;;;19.10;99.90;;;;;;5014658;28;20049;-55
2021/05/19 04:21:16;;;;;;;5.40;4.38;;;19.00;99.90;;;;;;5014703;28;20030;-51
2021/05/19 04:23:46;;;;;;;6.18;4.40;;;18.90;99.90;;;;;;5013588;28;20030;-53
2021/05/19 04:26:14;;;;;;;4.93;4.47;;;18.80;99.90;;;;;;5014980;28;20113;-50
2021/05/19 04:28:46;;;;;;;4.63;4.22;;;18.80;99.90;;;;;;5014581;28;20053;-57
2021/05/19 04:31:14;;;;;;;6.43;4.50;;;18.80;99.90;;;;;;5014289;28;20030;-57
2021/05/19 04:33:42;;;;;;;6.18;4.65;;;18.80;99.90;;;;;;5014644;28;20049;-54
2021/05/19 04:36:11;;;;;;;7.35;5.10;;;18.80;99.90;;;;;;5014363;28;20030;-54
2021/05/19 04:38:41;;;;;;;5.47;5.00;;;18.70;99.90;;;;;;5014405;28;20474;-52
2021/05/19 04:41:08;;;;;;;6.57;5.78;;;18.70;99.90;;;;;;5014363;28;20033;-57
2021/05/19 04:43:36;;;;;;;6.25;5.65;;;18.50;99.90;;;;;;5014254;28;20053;-56
2021/05/19 04:46:04;;;;;;;5.82;5.35;;;18.50;99.90;;;;;;5014188;28;20025;-55
2021/05/19 04:48:35;;;;;;;5.40;4.90;;;18.60;99.90;;;;;;4996548;28;20394;-55
2021/05/19 04:51:02;;;;;;;5.28;4.80;;;18.50;99.90;;;;;;5014349;28;20026;-53
2021/05/19 04:53:30;;;;;;;5.68;5.13;;;18.50;99.90;;;;;;5014273;28;20034;-56
2021/05/19 04:55:57;;;;;;;5.20;4.70;;;18.40;99.90;;;;;;5013895;28;20027;-56
2021/05/19 04:58:27;;;;;;;5.50;4.30;;;18.30;99.90;;;;;;5013989;28;20471;-51
2021/05/19 05:00:54;;;;;;;5.05;4.65;;;18.40;99.90;;;;;;5013923;28;20029;-52
2021/05/19 05:03:22;;;;;;;4.57;4.38;;;18.30;99.90;;;;;;5013968;28;20030;-57
2021/05/19 05:05:55;;;;;;;7.40;4.20;;;18.30;99.90;;;;;;5013973;28;20025;-51
2021/05/19 05:08:22;;;;;;;4.55;4.15;;;18.30;99.90;;;;;;5013697;28;20061;-52
2021/05/19 05:10:50;;;;;;;4.75;4.45;;;18.30;99.90;;;;;;5013610;28;20398;-55
2021/05/19 05:13:17;;;;;;;4.82;4.45;;;18.20;99.90;;;;;;5013600;28;20064;-51
2021/05/19 05:15:44;;;;;;;6.63;4.38;;;18.30;99.90;;;;;;5013848;28;20475;-53
2021/05/19 05:18:12;;;;;;;4.20;3.80;;;18.20;99.90;;;;;;5013633;28;20474;-55
2021/05/19 05:20:39;;;;;;;4.43;4.03;;;18.10;99.90;;;;;;5013550;28;20105;-56
2021/05/19 05:23:10;;;;;;;3.85;3.65;;;18.10;99.90;;;;;;5013546;28;20028;-51
2021/05/19 05:25:38;;;;;;;4.40;4.10;;;18.10;99.90;;;;;;4996183;28;20102;-51
2021/05/19 05:28:05;;;;;;;5.25;4.80;;;18.10;99.90;;;;;;5013617;28;20018;-54
2021/05/19 05:30:33;;;;;;;4.03;3.72;;;18.10;99.90;;;;;;5013062;28;20540;-52
2021/05/19 05:33:00;;;;;;;5.95;4.20;;;18.00;99.90;;;;;;5013307;28;20129;-54
2021/05/19 05:35:27;;;;;;;4.53;4.22;;;18.00;99.90;;;;;;5012880;28;20022;-56
2021/05/19 05:37:55;;;;;;;4.40;4.20;;;18.00;99.90;;;;;;5013315;28;20101;-53
2021/05/19 05:40:22;;;;;;;4.28;3.97;;;17.90;99.90;;;;;;5013351;28;20022;-53
2021/05/19 05:42:49;;;;;;;4.43;4.03;;;17.90;99.90;;;;;;5013404;28;20116;-54
2021/05/19 05:45:17;;;;;;;5.05;4.55;;;17.90;99.90;;;;;;5013300;28;20025;-56
2021/05/19 05:47:44;;;;;;;4.93;4.40;;;17.90;99.90;;;;;;5013278;28;20049;-50
2021/05/19 05:50:12;;;;;;;4.40;4.10;;;17.80;99.90;;;;;;5013164;28;20392;-53
2021/05/19 05:52:39;;;;;;;4.80;4.10;;;17.80;99.90;;;;;;5013260;28;20030;-51
2021/05/19 05:55:08;;;;;;;4.80;4.35;;;17.80;99.90;;;;;;5013258;28;20234;-53
2021/05/19 05:57:35;;;;;;;4.43;4.00;;;17.60;99.90;;;;;;5013041;28;20156;-54
2021/05/19 06:00:06;;;;;;;8.57;4.43;;;17.50;99.90;;;;;;5013216;28;20057;-52
2021/05/19 06:02:33;;;;;;;6.20;4.20;;;17.50;99.90;;;;;;5013157;28;20358;-52
2021/05/19 06:05:00;;;;;;;5.05;4.63;;;17.50;99.90;;;;;;5012941;28;20152;-52
2021/05/19 06:07:28;;;;;;;4.70;4.30;;;17.40;99.90;;;;;;5013094;28;20119;-53
2021/05/19 06:09:55;;;;;;;4.70;4.30;;;17.30;99.90;;;;;;4995374;28;20037;-52
2021/05/19 06:12:23;;;;;;;4.30;4.00;;;17.30;99.90;;;;;;5012995;28;20029;-52
2021/05/19 06:14:50;;;;;;;5.85;4.28;;;17.20;99.90;;;;;;5013093;28;20126;-52
2021/05/19 06:17:18;;;;;;;4.30;3.88;;;17.10;99.90;;;;;;5012986;28;20048;-49
2021/05/19 06:19:45;;;;;;;5.72;4.47;;;17.00;99.90;;;;;;5012806;28;20026;-48
2021/05/19 06:22:12;;;;;;;4.85;4.40;;;16.90;99.90;;;;;;5013039;28;20101;-49
2021/05/19 06:24:40;;;;;;;4.80;4.32;;;16.80;99.90;;;;;;5012936;28;20143;-50
2021/05/19 06:27:07;;;;;;;5.60;4.97;;;16.70;99.90;;;;;;5012951;28;20022;-51
2021/05/19 06:29:35;;;;;;;5.32;4.85;;;16.50;99.90;;;;;;5013122;28;20034;-51
2021/05/19 06:32:02;;;;;;;5.65;5.25;;;16.50;99.90;;;;;;5012561;28;20064;-54
2021/05/19 06:34:29;;;;;;;5.80;5.30;;;16.30;99.90;;;;;;5012494;28;20026;-47
2021/05/19 06:36:57;;;;;;;6.03;5.47;;;16.30;99.90;;;;;;5012639;28;20022;-50
2021/05/19 06:39:24;;;;;;;7.32;6.53;;;16.10;99.90;;;;;;5012700;28;20022;-49
2021/05/19 06:41:52;;;;;;;7.22;6.70;;;15.90;99.90;;;;;;5012824;28;20029;-52
2021/05/19 06:44:20;;;;;;;8.20;7.60;;;15.80;99.90;;;;;;5012738;28;20099;-51
2021/05/19 06:46:48;;;;;;;8.10;7.53;;;15.70;99.90;;;;;;5013526;28;20482;-50
2021/05/19 06:49:15;;;;;;;8.52;7.78;;;15.50;99.90;;;;;;5016276;28;20026;-49
2021/05/19 06:51:42;;;;;;;8.45;7.80;;;15.40;99.90;;;;;;5016243;28;20100;-50
2021/05/19 06:54:11;;;;;;;8.55;8.05;;;15.30;99.90;;;;;;5016195;28;20022;-57
2021/05/19 06:56:45;;;;;;;9.65;9.05;;;15.20;99.90;;;;;;5016030;28;20402;-47
2021/05/19 06:59:17;;;;;;;10.45;9.70;;;15.10;99.90;;;;;;5016157;28;20026;-47
2021/05/19 07:01:45;;;;;;;10.85;10.25;;;15.00;99.90;;;;;;5016041;28;20030;-48
2021/05/19 07:04:13;;;;;;;11.40;10.73;;;14.90;99.90;;;;;;5015876;28;20487;-48
2021/05/19 07:06:41;;;;;;;12.02;11.25;;;14.90;99.90;;;;;;5016241;28;20026;-47
2021/05/19 07:09:09;;;;;;;12.70;11.70;;;14.80;99.90;;;;;;5015975;28;20030;-48
2021/05/19 07:11:37;;;;;;;11.98;11.43;;;14.70;99.90;;;;;;5015786;28;20383;-48
2021/05/19 07:14:07;;;;;;;13.15;12.20;;;14.60;99.90;;;;;;4998085;28;20422;-51
2021/05/19 07:16:37;;;;;;;14.32;13.20;;;14.50;99.90;;;;;;5015928;28;20418;-50
2021/05/19 07:19:04;;;;;;;14.48;13.48;;;14.40;99.90;;;;;;5015625;28;20026;-51
2021/05/19 07:21:31;;;;;;;13.68;12.85;;;14.40;99.90;;;;;;5015596;28;20037;-50
2021/05/19 07:23:59;;;;;;;14.40;13.32;;;14.40;99.90;;;;;;5015549;28;20026;-52
2021/05/19 07:26:28;;;;;;;14.27;13.38;;;14.30;99.90;;;;;;5015523;28;20032;-48
2021/05/19 07:28:55;;;;;;;15.85;14.90;;;14.20;99.90;;;;;;5015527;28;20339;-48
2021/05/19 07:31:22;;;;;;;16.08;15.20;;;14.10;99.90;;;;;;5015261;28;20109;-50
2021/05/19 07:33:50;;;;;;;16.52;15.43;;;14.10;99.90;;;;;;5015567;28;20457;-51
2021/05/19 07:36:17;;;;;;;16.38;15.30;;;14.10;99.90;;;;;;5015454;28;20512;-48
2021/05/19 07:38:45;;;;;;;16.67;15.77;;;14.00;99.90;;;;;;5015438;28;20475;-52
2021/05/19 07:41:12;;;;;;;17.05;16.05;;;13.90;99.90;;;;;;5015396;28;20026;-51
2021/05/19 07:47:01;;;;;;;18.90;17.63;;;13.90;99.90;;;;;;5015182;28;20533;-49
2021/05/19 07:49:29;;;;;;;19.67;18.48;;;13.80;99.90;;;;;;5014915;28;20026;-48
2021/05/19 07:51:56;;;;;;;20.25;18.77;;;13.70;99.90;;;;;;5014911;28;20069;-50
2021/05/19 07:54:27;;;;;;;20.92;19.63;;;13.70;99.90;;;;;;5014933;28;20022;-47
2021/05/19 07:59:27;;;;;;;23.30;21.75;;;13.60;99.90;;;;;;5014634;28;19909;-50
2021/05/19 08:02:02;;;;;;;24.20;22.52;;;13.60;99.90;;;;;;5014946;28;20025;-47
2021/05/19 08:04:32;;;;;;;25.40;23.90;;;13.50;99.90;;;;;;5014798;28;20036;-49
2021/05/19 08:07:00;;;;;;;26.15;24.45;;;13.50;99.90;;;;;;5014733;28;20030;-49
2021/05/19 08:09:28;;;;;;;28.88;26.90;;;13.50;99.90;;;;;;5015127;28;20386;-49
2021/05/19 08:11:56;;;;;;;32.03;30.15;;;13.40;99.90;;;;;;5014469;28;20038;-45
2021/05/19 08:14:29;;;;;;;33.65;31.63;;;13.40;99.90;;;;;;5014471;28;20030;-46
2021/05/19 08:16:58;;;;;;;34.45;32.05;;;13.40;99.90;;;;;;5014698;28;20513;-49
2021/05/19 08:19:25;;;;;;;35.20;33.08;;;13.40;99.90;;;;;;5014308;28;20543;-49
2021/05/19 08:21:53;;;;;;;37.42;34.78;;;13.30;99.90;;;;;;5014476;28;20022;-47
2021/05/19 08:24:20;;;;;;;35.20;32.88;;;13.30;99.90;;;;;;5014196;28;20057;-47
2021/05/19 08:26:48;;;;;;;35.83;33.63;;;13.20;99.90;;;;;;5014396;28;20040;-51
2021/05/19 08:29:15;;;;;;;37.55;35.00;;;13.20;99.90;;;;;;4996655;28;20375;-51
2021/05/19 08:31:42;;;;;;;36.65;34.45;;;13.20;99.90;;;;;;5014016;28;20077;-52
2021/05/19 08:34:10;;;;;;;39.45;36.95;;;13.20;99.90;;;;;;5014126;28;20101;-57
2021/05/19 08:36:38;;;;;;;39.47;36.78;;;13.20;99.90;;;;;;5014043;28;20049;-47
2021/05/19 08:39:05;;;;;;;41.15;38.20;;;13.20;99.90;;;;;;5013985;28;20022;-49
2021/05/19 08:41:33;;;;;;;40.58;37.80;;;13.10;99.90;;;;;;4996327;28;20349;-50
2021/05/19 08:44:00;;;;;;;39.30;36.65;;;13.10;99.90;;;;;;5014081;28;20041;-52
2021/05/19 08:46:28;;;;;;;42.85;40.05;;;13.10;99.90;;;;;;5014030;28;20022;-49
2021/05/19 08:49:03;;;;;;;43.45;40.65;;;13.10;99.90;;;;;;5014001;28;20056;-50
2021/05/19 08:51:30;;;;;;;42.10;39.45;;;13.00;99.90;;;;;;5013974;28;20030;-51
2021/05/19 08:53:58;;;;;;;41.53;38.65;;;13.00;99.90;;;;;;5013967;28;20069;-48
2021/05/19 08:56:25;;;;;;;41.17;38.58;;;13.00;99.90;;;;;;5013953;28;20049;-52
2021/05/19 08:58:53;;;;;;;40.72;37.83;;;12.90;99.90;;;;;;5014025;28;20030;-52
2021/05/19 09:01:22;;;;;;;40.72;37.85;;;12.90;99.90;;;;;;5013689;28;20026;-47
2021/05/19 09:04:18;;;;;;;40.03;37.22;;;12.90;99.90;;;;;;5013659;28;20538;-49
2021/05/19 09:06:58;;;;;;;38.42;35.53;;;12.90;99.90;;;;;;5013569;28;20037;-50
2021/05/19 09:09:30;;;;;;;40.38;37.50;;;12.90;99.90;;;;;;5012940;28;20037;-48
2021/05/19 09:12:01;;;;;;;38.90;35.88;;;12.90;99.90;;;;;;5013554;28;20045;-52
2021/05/19 09:14:34;;;;;;;39.50;35.92;;;12.90;99.90;;;;;;5013716;28;20100;-53
2021/05/19 09:17:25;;;;;;;39.08;36.00;;;12.90;99.90;;;;;;5013708;28;20021;-55
2021/05/19 09:20:01;;;;;;;39.38;36.08;;;12.80;99.90;;;;;;5004550;28;20092;-49
2021/05/19 09:22:34;;;;;;;40.38;37.05;;;12.80;99.90;;;;;;5013550;28;20025;-51
2021/05/19 09:25:15;;;;;;;41.45;38.25;;;12.80;99.90;;;;;;5013443;28;20390;-50
2021/05/19 09:27:45;;;;;;;42.22;38.53;;;12.80;99.90;;;;;;5013504;28;20394;-49
2021/05/19 09:30:13;;;;;;;42.10;38.63;;;12.80;99.90;;;;;;5013240;28;20091;-52
2021/05/19 09:32:43;;;;;;;40.15;36.67;;;12.80;99.90;;;;;;5013370;28;20100;-50
2021/05/19 09:35:15;;;;;;;40.40;36.78;;;12.80;99.90;;;;;;4996254;28;20030;-51
2021/05/19 09:37:42;;;;;;;41.40;37.88;;;12.70;99.90;;;;;;5013517;28;20033;-46
2021/05/19 09:40:13;;;;;;;40.92;37.30;;;12.70;99.90;;;;;;5013203;28;20080;-48
2021/05/19 09:42:48;;;;;;;38.85;35.53;;;12.70;99.90;;;;;;5013577;28;20034;-47
2021/05/19 09:45:29;;;;;;;38.00;34.95;;;12.70;99.90;;;;;;5013335;28;20487;-47
2021/05/19 09:47:58;;;;;;;41.38;38.03;;;12.70;99.90;;;;;;5013419;28;20389;-49
2021/05/19 09:50:40;;;;;;;40.83;37.42;;;12.80;99.90;;;;;;5013137;28;20037;-49
2021/05/19 09:53:16;;;;;;;42.67;38.88;;;12.70;99.90;;;;;;5013142;28;20513;-47
2021/05/19 09:56:03;;;;;;;40.38;36.80;;;12.70;99.90;;;;;;5013076;28;20022;-51
2021/05/19 09:58:42;;;;;;;40.92;37.63;;;12.70;99.90;;;;;;5013222;28;20049;-51
2021/05/19 10:01:10;;;;;;;41.83;37.90;;;12.60;99.90;;;;;;5013345;28;20065;-49
2021/05/19 10:03:38;;;;;;;42.65;38.90;;;12.60;99.90;;;;;;5013007;28;20061;-48
2021/05/19 10:09:09;;;;;;;44.90;41.30;;;12.40;99.90;;;;;;4952962;29;20086;-48
2021/05/19 10:11:36;;;;;;;44.00;40.50;;;12.40;99.90;;;;;;5000926;28;20065;-47
2021/05/19 10:14:09;;;;;;;44.35;40.35;;;12.40;99.90;;;;;;5012873;28;20030;-48
2021/05/19 10:16:39;;;;;;;47.35;43.20;;;12.40;99.90;;;;;;5012959;28;20438;-48
2021/05/19 10:19:09;;;;;;;42.92;39.53;;;12.30;99.90;;;;;;5012802;28;20033;-49
2021/05/19 10:21:37;;;;;;;45.45;41.63;;;12.30;99.90;;;;;;5015130;28;20041;-50
2021/05/19 10:24:13;;;;;;;43.65;39.97;;;12.20;99.90;;;;;;5016838;28;20099;-51
2021/05/19 10:27:08;;;;;;;42.95;39.13;;;12.10;99.90;;;;;;5016849;28;20030;-51
2021/05/19 10:29:48;;;;;;;43.22;39.67;;;12.10;99.90;;;;;;5016558;28;20025;-49
2021/05/19 10:32:33;;;;;;;45.63;41.97;;;12.10;99.90;;;;;;5016357;28;20120;-52
2021/05/19 10:35:03;;;;;;;47.47;43.70;;;12.10;99.90;;;;;;5016505;28;20513;-49
2021/05/19 10:37:30;;;;;;;47.20;43.35;;;12.00;99.90;;;;;;5016370;28;20036;-54
2021/05/19 10:40:13;;;;;;;45.83;42.28;;;12.10;99.90;;;;;;5016547;28;20081;-49
2021/05/19 10:42:52;;;;;;;46.75;42.97;;;12.00;99.90;;;;;;5016198;28;20079;-51
2021/05/19 10:45:20;;;;;;;46.63;42.70;;;11.90;99.90;;;;;;5016234;28;20045;-53
2021/05/19 10:47:50;;;;;;;46.22;42.30;;;11.90;99.90;;;;;;5016245;28;20026;-50
2021/05/19 10:50:36;;;;;;;44.40;40.78;;;11.80;99.90;;;;;;5016094;28;20030;-47
2021/05/19 10:59:08;;;;;;;47.42;43.45;;;11.70;99.90;;;;;;5016442;28;20524;-50
2021/05/19 11:01:42;;;;;;;46.53;42.72;;;11.50;99.90;;;;;;5015828;28;20061;-51
2021/05/19 11:04:18;;;;;;;47.63;44.00;;;11.50;99.90;;;;;;5015966;28;20475;-48
2021/05/19 11:07:06;;;;;;;47.53;43.80;;;11.60;99.90;;;;;;5015981;28;20025;-51
2021/05/19 11:09:41;;;;;;;47.42;43.55;;;11.60;99.90;;;;;;4998125;28;20375;-47
2021/05/19 11:12:22;;;;;;;48.85;44.97;;;11.60;99.90;;;;;;5015701;28;20061;-48
2021/05/19 11:17:32;;;;;;;47.90;44.00;;;11.60;99.90;;;;;;5015751;28;20022;-51
2021/05/19 11:20:04;;;;;;;43.97;40.13;;;11.50;99.90;;;;;;4997945;28;20030;-50
2021/05/19 11:22:31;;;;;;;43.42;40.03;;;11.60;99.90;;;;;;4981905;28;20030;-49
2021/05/19 11:25:00;;;;;;;47.22;43.42;;;11.60;99.90;;;;;;5015673;28;20025;-47
2021/05/19 11:27:35;;;;;;;47.03;43.17;;;11.50;99.90;;;;;;5015600;28;20026;-49
2021/05/19 11:30:06;;;;;;;46.13;42.22;;;11.50;99.90;;;;;;5015473;28;20082;-51
2021/05/19 11:32:35;;;;;;;47.03;43.35;;;11.50;99.90;;;;;;5014860;28;20056;-50
2021/05/19 11:35:17;;;;;;;43.72;40.15;;;11.40;99.90;;;;;;5015445;28;20057;-49
2021/05/19 11:37:58;;;;;;;45.80;42.00;;;11.40;99.90;;;;;;5015637;28;20029;-50
2021/05/19 11:40:44;;;;;;;;;;;11.40;99.90;;;;;;5015920;28;20044;-51
2021/05/19 11:43:16;;;;;;;54.58;50.80;;;11.40;99.90;;;;;;5014988;28;19917;-48
2021/05/19 11:45:53;;;;;;;51.40;47.72;;;11.30;99.90;;;;;;5015363;28;20026;-51
2021/05/19 11:48:23;;;;;;;50.55;46.67;;;11.30;99.90;;;;;;5015072;28;20042;-50
2021/05/19 11:50:55;;;;;;;52.45;48.75;;;11.30;99.90;;;;;;5015119;28;20034;-52
2021/05/19 11:53:24;;;;;;;51.17;47.58;;;11.30;99.90;;;;;;5015109;28;20026;-46
2021/05/19 11:55:52;;;;;;;50.25;46.55;;;11.30;99.90;;;;;;5015039;28;20045;-49
2021/05/19 11:58:26;;;;;;;50.90;47.13;;;11.30;99.90;;;;;;5014836;28;20037;-49
2021/05/19 12:01:07;;;;;;;50.08;46.58;;;11.30;99.90;;;;;;5014921;28;20057;-49
2021/05/19 12:03:36;;;;;;;54.15;50.22;;;11.20;99.90;;;;;;5014809;28;20024;-50
2021/05/19 12:06:04;;;;;;;49.38;45.67;;;11.20;99.90;;;;;;5014606;28;20026;-52
2021/05/19 12:08:32;;;;;;;47.92;44.50;;;11.20;99.90;;;;;;5014572;28;20022;-53
2021/05/19 12:11:18;;;;;;;46.70;43.25;;;11.20;99.90;;;;;;5014255;28;20046;-47
2021/05/19 12:14:10;;;;;;;51.35;47.63;;;11.20;99.90;;;;;;5014478;28;20030;-51
2021/05/19 12:16:43;;;;;;;52.92;48.92;;;11.20;99.90;;;;;;5014454;28;20018;-52
2021/05/19 12:19:17;;;;;;;47.45;43.78;;;11.20;99.90;;;;;;5014299;28;20121;-49
2021/05/19 12:22:03;;;;;;;52.92;49.33;;;11.20;99.90;;;;;;5014215;28;20041;-47
2021/05/19 12:24:30;;;;;;;54.67;50.55;;;11.20;99.90;;;;;;5014194;28;20080;-49
2021/05/19 12:26:58;;;;;;;50.35;46.10;;;11.20;99.90;;;;;;5014311;28;20029;-52
2021/05/19 12:29:49;;;;;;;61.47;57.38;;;11.20;99.90;;;;;;5014368;28;20408;-51
2021/05/19 12:32:20;;;;;;;50.63;46.53;;;11.20;99.90;;;;;;4996353;28;20402;-49
2021/05/19 12:35:10;;;;;;;50.20;46.10;;;11.20;99.90;;;;;;5013874;28;20050;-49
2021/05/19 12:37:50;;;;;;;50.20;46.08;;;11.10;99.90;;;;;;5014105;28;20026;-48
2021/05/19 12:40:20;;;;;;;52.63;48.60;;;11.10;99.90;;;;;;4996423;28;20022;-53
2021/05/19 12:42:56;;;;;;;54.20;50.28;;;11.10;99.90;;;;;;5014233;28;20044;-53
2021/05/19 12:45:42;;;;;;;47.17;43.67;;;11.10;99.90;;;;;;5013217;28;20595;-54
2021/05/19 12:48:15;;;;;;;46.72;43.47;;;11.00;99.90;;;;;;5013631;28;20544;-49
2021/05/19 12:50:42;;;;;;;49.03;45.47;;;10.90;99.90;;;;;;5013656;28;20037;-47
2021/05/19 12:53:29;;;;;;;49.80;46.50;;;10.90;99.90;;;;;;5013707;28;20061;-50
2021/05/19 12:56:03;;;;;;;46.50;43.00;;;10.90;99.90;;;;;;5013826;28;20558;-49
2021/05/19 12:58:47;;;;;;;50.67;46.95;;;10.90;99.90;;;;;;5013757;28;20049;-48
2021/05/19 13:01:15;;;;;;;50.65;46.95;;;11.00;99.90;;;;;;4996434;28;20026;-50
2021/05/19 13:03:42;;;;;;;49.00;45.38;;;11.00;99.90;;;;;;5013868;28;20037;-47
2021/05/19 13:06:10;;;;;;;49.63;45.92;;;10.90;99.90;;;;;;4979853;28;20065;-49
2021/05/19 13:08:38;;;;;;;50.30;46.30;;;10.90;99.90;;;;;;5013465;28;20470;-52
2021/05/19 13:11:09;;;;;;;48.58;44.88;;;10.80;99.90;;;;;;4995774;28;20061;-47